createdAt,value
2022-10-01T00:02:07.292Z,11.00
2022-10-01T00:04:37.286Z,11.00
2022-10-01T00:07:14.979Z,11.00
2022-10-01T00:09:44.537Z,10.90
2022-10-01T00:12:16.708Z,10.90
2022-10-01T00:14:44.555Z,10.90
2022-10-01T00:17:11.927Z,10.90
2022-10-01T00:19:41.231Z,10.90
2022-10-01T00:22:10.870Z,10.90
2022-10-01T00:24:38.758Z,10.90
2022-10-01T00:27:08.123Z,10.90
2022-10-01T00:29:37.701Z,10.90
2022-10-01T00:32:05.051Z,10.90
2022-10-01T00:34:32.246Z,10.90
2022-10-01T00:36:59.413Z,11.00
2022-10-01T00:39:29.180Z,11.00
2022-10-01T00:41:56.277Z,11.00
2022-10-01T00:44:38.671Z,11.00
2022-10-01T00:47:38.275Z,11.00
2022-10-01T00:50:26.432Z,11.10
2022-10-01T00:53:03.600Z,11.10
2022-10-01T00:55:41.016Z,11.10
2022-10-01T00:58:18.272Z,11.10
2022-10-01T01:00:46.311Z,11.10
2022-10-01T01:03:14.796Z,11.10
2022-10-01T01:05:41.914Z,11.10
2022-10-01T01:08:10.076Z,11.10
2022-10-01T01:10:49.483Z,11.10
2022-10-01T01:13:32.671Z,11.10
2022-10-01T01:16:12.839Z,11.10
2022-10-01T01:19:18.477Z,11.10
2022-10-01T01:21:48.927Z,11.10
2022-10-01T01:24:37.500Z,11.10
2022-10-01T01:27:23.736Z,11.00
2022-10-01T01:30:04.433Z,11.00
2022-10-01T01:33:02.384Z,11.10
2022-10-01T01:35:34.746Z,11.00
2022-10-01T01:38:10.241Z,11.00
2022-10-01T01:40:39.717Z,11.00
2022-10-01T01:43:14.096Z,11.00
2022-10-01T01:45:44.761Z,11.10
2022-10-01T01:48:13.172Z,11.10
2022-10-01T01:51:14.150Z,11.10
2022-10-01T01:53:44.276Z,11.10
2022-10-01T01:56:14.203Z,11.10
2022-10-01T01:58:47.603Z,11.00
2022-10-01T02:01:34.764Z,11.00
2022-10-01T02:04:09.940Z,11.00
2022-10-01T02:07:18.497Z,11.00
2022-10-01T02:09:59.063Z,11.00
2022-10-01T02:12:51.436Z,11.00
2022-10-01T02:15:38.945Z,10.90
2022-10-01T02:18:26.073Z,10.90
2022-10-01T02:21:24.104Z,10.90
2022-10-01T02:24:01.389Z,11.00
2022-10-01T02:26:31.328Z,10.90
2022-10-01T02:29:05.580Z,11.00
2022-10-01T02:31:33.628Z,10.90
2022-10-01T02:34:08.610Z,11.00
2022-10-01T02:36:42.105Z,10.90
2022-10-01T02:39:13.078Z,10.90
2022-10-01T02:41:43.047Z,10.80
2022-10-01T02:44:21.224Z,10.70
2022-10-01T02:47:00.414Z,10.70
2022-10-01T02:49:30.893Z,10.80
2022-10-01T02:52:06.354Z,10.70
2022-10-01T02:54:48.742Z,10.70
2022-10-01T02:57:22.997Z,10.70
2022-10-01T02:59:59.967Z,10.70
2022-10-01T03:02:31.659Z,10.60
2022-10-01T03:04:59.645Z,10.60
2022-10-01T03:07:31.371Z,10.60
2022-10-01T03:10:01.803Z,10.60
2022-10-01T03:12:34.273Z,10.60
2022-10-01T03:15:02.577Z,10.50
2022-10-01T03:17:32.630Z,10.50
2022-10-01T03:20:00.194Z,10.50
2022-10-01T03:22:27.386Z,10.40
2022-10-01T03:24:54.889Z,10.40
2022-10-01T03:27:26.495Z,10.30
2022-10-01T03:29:58.527Z,10.30
2022-10-01T03:32:28.492Z,10.20
2022-10-01T03:34:55.959Z,10.20
2022-10-01T03:37:25.814Z,10.20
2022-10-01T03:39:53.074Z,10.10
2022-10-01T03:42:24.781Z,10.00
2022-10-01T03:44:53.129Z,10.00
2022-10-01T03:47:22.180Z,10.00
2022-10-01T03:49:51.613Z,9.90
2022-10-01T03:52:21.336Z,9.90
2022-10-01T03:54:48.474Z,9.80
2022-10-01T03:57:15.681Z,9.70
2022-10-01T03:59:47.811Z,9.70
2022-10-01T04:02:17.305Z,9.70
2022-10-01T04:04:44.602Z,9.60
2022-10-01T04:07:14.414Z,9.60
2022-10-01T04:09:41.485Z,9.50
2022-10-01T04:12:09.557Z,9.50
2022-10-01T04:14:36.807Z,9.40
2022-10-01T04:17:04.026Z,9.40
2022-10-01T04:19:31.222Z,9.30
2022-10-01T04:22:00.737Z,9.20
2022-10-01T04:24:30.410Z,9.20
2022-10-01T04:26:59.810Z,9.10
2022-10-01T04:29:29.295Z,9.10
2022-10-01T04:31:58.185Z,9.00
2022-10-01T04:34:47.502Z,9.00
2022-10-01T04:37:17.758Z,9.00
2022-10-01T04:39:47.761Z,8.90
2022-10-01T04:42:20.698Z,8.90
2022-10-01T04:44:48.216Z,8.80
2022-10-01T04:47:17.730Z,8.90
2022-10-01T04:49:44.807Z,8.80
2022-10-01T04:52:12.224Z,8.80
2022-10-01T04:54:41.747Z,8.80
2022-10-01T04:57:12.260Z,8.80
2022-10-01T04:59:39.616Z,8.70
2022-10-01T05:02:06.939Z,8.80
2022-10-01T05:04:34.346Z,8.80
2022-10-01T05:07:01.699Z,8.70
2022-10-01T05:09:28.757Z,8.60
2022-10-01T05:12:03.241Z,8.70
2022-10-01T05:14:31.353Z,8.70
2022-10-01T05:17:00.733Z,8.70
2022-10-01T05:19:29.634Z,8.70
2022-10-01T05:21:57.112Z,8.80
2022-10-01T05:24:24.251Z,8.80
2022-10-01T05:26:53.993Z,8.80
2022-10-01T05:29:26.304Z,8.90
2022-10-01T05:31:53.501Z,8.90
2022-10-01T05:34:22.901Z,9.00
2022-10-01T05:36:50.219Z,9.00
2022-10-01T05:39:19.398Z,9.20
2022-10-01T05:41:46.594Z,9.20
2022-10-01T05:44:13.871Z,9.20
2022-10-01T05:46:41.239Z,9.30
2022-10-01T05:49:13.130Z,9.40
2022-10-01T05:51:40.374Z,9.50
2022-10-01T05:54:08.335Z,9.60
2022-10-01T05:56:38.293Z,9.70
2022-10-01T05:59:06.103Z,9.80
2022-10-01T06:01:35.856Z,9.80
2022-10-01T06:04:05.469Z,9.70
2022-10-01T06:06:32.791Z,9.70
2022-10-01T06:09:04.573Z,9.70
2022-10-01T06:11:32.040Z,9.80
2022-10-01T06:14:01.777Z,9.80
2022-10-01T06:16:29.210Z,9.80
2022-10-01T06:18:57.750Z,9.80
2022-10-01T06:21:26.319Z,9.70
2022-10-01T06:23:57.962Z,9.70
2022-10-01T06:26:28.523Z,9.60
2022-10-01T06:28:57.890Z,9.60
2022-10-01T06:31:30.610Z,9.60
2022-10-01T06:34:00.078Z,9.60
2022-10-01T06:36:27.142Z,9.60
2022-10-01T06:38:56.810Z,9.60
2022-10-01T06:41:26.546Z,9.60
2022-10-01T06:43:53.681Z,9.60
2022-10-01T06:46:23.353Z,9.60
2022-10-01T06:48:50.708Z,9.60
2022-10-01T06:51:41.295Z,9.60
2022-10-01T06:54:08.991Z,9.60
2022-10-01T06:56:38.665Z,9.60
2022-10-01T06:59:08.619Z,9.70
2022-10-01T07:01:38.614Z,9.80
2022-10-01T07:04:06.294Z,9.80
2022-10-01T07:06:33.418Z,9.90
2022-10-01T07:09:03.546Z,9.90
2022-10-01T07:11:31.465Z,9.90
2022-10-01T07:14:05.791Z,10.00
2022-10-01T07:16:34.009Z,10.00
2022-10-01T07:19:01.074Z,10.10
2022-10-01T07:21:28.279Z,10.10
2022-10-01T07:23:55.590Z,10.20
2022-10-01T07:26:22.657Z,10.30
2022-10-01T07:28:52.572Z,10.30
2022-10-01T07:31:20.093Z,10.30
2022-10-01T07:33:49.971Z,10.30
2022-10-01T07:36:17.031Z,10.20
2022-10-01T07:38:45.892Z,10.20
2022-10-01T07:41:13.066Z,10.20
2022-10-01T07:43:46.761Z,10.30
2022-10-01T07:46:16.405Z,10.30
2022-10-01T07:48:48.916Z,10.30
2022-10-01T07:51:16.002Z,10.40
2022-10-01T07:53:45.867Z,10.40
2022-10-01T07:56:14.014Z,10.50
2022-10-01T07:58:41.283Z,10.60
2022-10-01T08:01:09.618Z,10.70
2022-10-01T08:03:39.315Z,10.70
2022-10-01T08:06:11.097Z,10.80
2022-10-01T08:08:41.830Z,10.90
2022-10-01T08:11:14.505Z,11.00
2022-10-01T08:13:41.825Z,11.10
2022-10-01T08:16:14.532Z,11.20
2022-10-01T08:18:41.731Z,11.20
2022-10-01T08:21:14.419Z,11.30
2022-10-01T08:23:43.934Z,11.30
2022-10-01T08:26:13.509Z,11.40
2022-10-01T08:28:43.041Z,11.50
2022-10-01T08:31:12.694Z,11.60
2022-10-01T08:33:42.064Z,11.60
2022-10-01T08:36:09.247Z,11.60
2022-10-01T08:38:40.231Z,11.60
2022-10-01T08:41:33.353Z,11.50
2022-10-01T08:44:03.894Z,11.50
2022-10-01T08:46:35.119Z,11.60
2022-10-01T08:49:17.083Z,11.70
2022-10-01T08:52:00.001Z,11.80
2022-10-01T08:54:44.681Z,11.90
2022-10-01T08:57:24.763Z,12.10
2022-10-01T08:59:53.831Z,12.20
2022-10-01T09:02:31.568Z,12.40
2022-10-01T09:05:12.412Z,12.50
2022-10-01T09:07:48.414Z,12.60
2022-10-01T09:10:26.424Z,12.70
2022-10-01T09:12:58.554Z,12.70
2022-10-01T09:15:47.439Z,12.80
2022-10-01T09:18:15.781Z,12.90
2022-10-01T09:20:51.974Z,13.00
2022-10-01T09:23:22.246Z,13.00
2022-10-01T09:25:51.337Z,13.10
2022-10-01T09:28:23.514Z,13.10
2022-10-01T09:31:11.952Z,13.10
2022-10-01T09:33:42.890Z,13.20
2022-10-01T09:36:34.484Z,13.20
2022-10-01T09:39:13.745Z,13.20
2022-10-01T09:41:46.247Z,13.20
2022-10-01T09:44:20.931Z,13.30
2022-10-01T09:46:48.346Z,13.20
2022-10-01T09:49:30.195Z,13.30
2022-10-01T09:52:03.973Z,13.30
2022-10-01T09:54:38.218Z,13.30
2022-10-01T09:57:20.668Z,13.20
2022-10-01T10:00:10.658Z,13.30
2022-10-01T10:02:48.975Z,13.30
2022-10-01T10:05:24.909Z,13.30
2022-10-01T10:08:04.292Z,13.40
2022-10-01T10:10:35.915Z,13.40
2022-10-01T10:13:17.735Z,13.40
2022-10-01T10:15:58.899Z,13.50
2022-10-01T10:18:35.495Z,13.50
2022-10-01T10:21:08.031Z,13.50
2022-10-01T10:23:45.949Z,13.60
2022-10-01T10:26:22.366Z,13.60
2022-10-01T10:28:51.926Z,13.60
2022-10-01T10:31:25.337Z,13.70
2022-10-01T10:34:16.185Z,13.70
2022-10-01T10:36:45.199Z,13.70
2022-10-01T10:39:29.413Z,13.80
2022-10-01T10:41:58.945Z,13.80
2022-10-01T10:44:31.703Z,13.90
2022-10-01T10:47:00.099Z,13.90
2022-10-01T10:49:33.470Z,14.00
2022-10-01T10:52:02.041Z,14.00
2022-10-01T10:54:40.522Z,14.10
2022-10-01T10:57:28.496Z,14.20
2022-10-01T11:00:11.753Z,14.30
2022-10-01T11:02:41.387Z,14.40
2022-10-01T11:05:20.359Z,14.40
2022-10-01T11:07:55.806Z,14.40
2022-10-01T11:10:57.292Z,14.50
2022-10-01T11:13:54.708Z,14.50
2022-10-01T11:16:52.299Z,14.60
2022-10-01T11:19:30.675Z,14.70
2022-10-01T11:22:25.565Z,14.80
2022-10-01T11:25:35.817Z,14.80
2022-10-01T11:28:11.206Z,14.90
2022-10-01T11:30:56.327Z,15.00
2022-10-01T11:33:44.899Z,15.00
2022-10-01T11:36:26.890Z,15.10
2022-10-01T11:39:12.802Z,15.30
2022-10-01T11:41:48.954Z,15.40
2022-10-01T11:44:32.281Z,15.50
2022-10-01T11:47:01.673Z,15.50
2022-10-01T11:49:45.258Z,15.50
2022-10-01T11:52:19.677Z,15.60
2022-10-01T11:55:24.752Z,15.70
2022-10-01T11:58:17.081Z,15.70
2022-10-01T12:01:14.254Z,15.70
2022-10-01T12:04:00.567Z,15.70
2022-10-01T12:06:45.971Z,15.60
2022-10-01T12:09:14.184Z,15.60
2022-10-01T12:12:19.295Z,15.60
2022-10-01T12:15:06.685Z,15.60
2022-10-01T12:17:56.041Z,15.60
2022-10-01T12:20:43.089Z,15.60
2022-10-01T12:23:44.364Z,15.60
2022-10-01T12:26:34.913Z,15.60
2022-10-01T12:29:36.329Z,15.60
2022-10-01T12:32:27.554Z,15.60
2022-10-01T12:35:06.675Z,15.60
2022-10-01T12:37:40.959Z,15.50
2022-10-01T12:40:18.061Z,15.40
2022-10-01T12:43:14.127Z,15.30
2022-10-01T12:45:56.135Z,15.20
2022-10-01T12:48:32.346Z,15.10
2022-10-01T12:51:27.506Z,15.10
2022-10-01T12:54:26.181Z,15.00
2022-10-01T12:57:11.123Z,15.00
2022-10-01T13:00:04.981Z,15.00
2022-10-01T13:02:53.269Z,15.00
2022-10-01T13:05:48.874Z,15.00
2022-10-01T13:08:16.186Z,15.00
2022-10-01T13:11:03.505Z,15.00
2022-10-01T13:13:33.813Z,14.90
2022-10-01T13:16:11.073Z,14.90
2022-10-01T13:18:38.405Z,14.90
2022-10-01T13:21:24.122Z,14.90
2022-10-01T13:24:03.169Z,14.90
2022-10-01T13:27:08.316Z,15.00
2022-10-01T13:29:54.757Z,14.90
2022-10-01T13:32:34.059Z,14.90
2022-10-01T13:35:21.566Z,14.90
2022-10-01T13:37:51.402Z,14.80
2022-10-01T13:40:33.955Z,14.80
2022-10-01T13:43:22.001Z,14.80
2022-10-01T13:45:54.607Z,14.80
2022-10-01T13:48:33.327Z,14.70
2022-10-01T13:51:11.641Z,14.70
2022-10-01T13:53:41.674Z,14.60
2022-10-01T13:56:12.955Z,14.60
2022-10-01T13:58:47.594Z,14.60
2022-10-01T14:01:24.033Z,14.60
2022-10-01T14:04:01.446Z,14.60
2022-10-01T14:06:41.757Z,14.50
2022-10-01T14:09:32.017Z,14.50
2022-10-01T14:12:26.066Z,14.50
2022-10-01T14:15:17.598Z,14.50
2022-10-01T14:17:55.868Z,14.50
2022-10-01T14:20:34.167Z,14.40
2022-10-01T14:23:12.662Z,14.40
2022-10-01T14:25:43.550Z,14.40
2022-10-01T14:28:27.200Z,14.40
2022-10-01T14:31:14.415Z,14.40
2022-10-01T14:34:27.733Z,14.30
2022-10-01T14:36:56.218Z,14.30
2022-10-01T14:39:33.823Z,14.30
2022-10-01T14:42:17.112Z,14.30
2022-10-01T14:44:46.782Z,14.30
2022-10-01T14:47:22.187Z,14.20
2022-10-01T14:49:51.738Z,14.20
2022-10-01T14:52:31.361Z,14.20
2022-10-01T14:55:03.207Z,14.10
2022-10-01T14:57:44.807Z,14.10
2022-10-01T15:00:30.259Z,14.10
2022-10-01T15:03:15.054Z,14.10
2022-10-01T15:05:46.914Z,14.10
2022-10-01T15:08:44.331Z,14.10
2022-10-01T15:11:26.808Z,14.10
2022-10-01T15:13:57.278Z,14.00
2022-10-01T15:16:27.881Z,14.00
2022-10-01T15:19:03.284Z,14.00
2022-10-01T15:21:42.456Z,14.00
2022-10-01T15:24:24.500Z,14.10
2022-10-01T15:27:00.702Z,14.10
2022-10-01T15:29:30.385Z,14.10
2022-10-01T15:32:07.423Z,14.00
2022-10-01T15:34:51.950Z,14.00
2022-10-01T15:37:33.991Z,13.90
2022-10-01T15:40:13.070Z,13.90
2022-10-01T15:43:12.601Z,13.90
2022-10-01T15:45:47.758Z,13.90
2022-10-01T15:48:30.416Z,13.90
2022-10-01T15:51:05.929Z,13.90
2022-10-01T15:53:37.022Z,13.80
2022-10-01T15:56:32.884Z,13.80
2022-10-01T15:59:12.776Z,13.80
2022-10-01T16:01:41.693Z,13.70
2022-10-01T16:04:14.591Z,13.70
2022-10-01T16:06:52.066Z,13.70
2022-10-01T16:09:24.613Z,13.70
2022-10-01T16:12:26.038Z,13.60
2022-10-01T16:15:07.275Z,13.60
2022-10-01T16:17:53.757Z,13.60
2022-10-01T16:21:05.465Z,13.60
2022-10-01T16:23:58.379Z,13.50
2022-10-01T16:26:38.582Z,13.50
2022-10-01T16:29:22.548Z,13.50
2022-10-01T16:31:54.213Z,13.40
2022-10-01T16:34:22.512Z,13.50
2022-10-01T16:36:50.518Z,13.50
2022-10-01T16:39:21.530Z,13.50
2022-10-01T16:42:06.328Z,13.50
2022-10-01T16:44:41.861Z,13.50
2022-10-01T16:47:11.390Z,13.50
2022-10-01T16:49:38.640Z,13.50
2022-10-01T16:52:06.308Z,13.50
2022-10-01T16:54:35.930Z,13.40
2022-10-01T16:57:06.758Z,13.50
2022-10-01T16:59:37.228Z,13.50
2022-10-01T17:02:04.691Z,13.50
2022-10-01T17:04:34.357Z,13.40
2022-10-01T17:07:01.952Z,13.40
2022-10-01T17:09:33.964Z,13.50
2022-10-01T17:12:01.871Z,13.50
2022-10-01T17:14:32.289Z,13.40
2022-10-01T17:16:59.636Z,13.40
2022-10-01T17:19:29.367Z,13.40
2022-10-01T17:21:59.229Z,13.40
2022-10-01T17:24:26.962Z,13.40
2022-10-01T17:26:57.335Z,13.30
2022-10-01T17:29:27.338Z,13.30
2022-10-01T17:31:54.563Z,13.40
2022-10-01T17:34:22.086Z,13.40
2022-10-01T17:36:49.458Z,13.30
2022-10-01T17:39:18.977Z,13.30
2022-10-01T17:41:48.155Z,13.30
2022-10-01T17:44:15.607Z,13.30
2022-10-01T17:46:45.317Z,13.20
2022-10-01T17:49:16.207Z,13.20
2022-10-01T17:51:43.541Z,13.20
2022-10-01T17:54:15.578Z,13.10
2022-10-01T17:56:44.158Z,13.10
2022-10-01T17:59:11.539Z,13.10
2022-10-01T18:01:40.129Z,13.10
2022-10-01T18:04:12.433Z,13.10
2022-10-01T18:06:41.834Z,13.10
2022-10-01T18:09:09.396Z,13.10
2022-10-01T18:11:39.511Z,13.10
2022-10-01T18:14:07.825Z,13.10
2022-10-01T18:16:35.813Z,13.00
2022-10-01T18:21:51.855Z,13.00
2022-10-01T18:24:21.740Z,13.00
2022-10-01T18:26:49.440Z,13.00
2022-10-01T18:29:22.780Z,13.00
2022-10-01T18:31:56.082Z,13.00
2022-10-01T18:34:29.884Z,13.00
2022-10-01T18:37:01.086Z,13.00
2022-10-01T18:39:38.782Z,12.90
2022-10-01T18:42:21.083Z,13.00
2022-10-01T18:44:58.414Z,13.00
2022-10-01T18:47:43.685Z,12.90
2022-10-01T18:50:37.808Z,12.90
2022-10-01T18:53:12.692Z,12.80
2022-10-01T18:56:18.561Z,12.90
2022-10-01T18:58:59.529Z,12.80
2022-10-01T19:01:38.358Z,12.70
2022-10-01T19:04:32.509Z,12.50
2022-10-01T19:07:09.497Z,12.20
2022-10-01T19:09:45.533Z,12.10
2022-10-01T19:12:35.137Z,12.00
2022-10-01T19:15:23.586Z,11.90
2022-10-01T19:18:29.937Z,11.90
2022-10-01T19:21:06.007Z,11.80
2022-10-01T19:23:54.492Z,11.70
2022-10-01T19:26:45.080Z,11.70
2022-10-01T19:29:30.502Z,11.70
2022-10-01T19:32:00.277Z,11.70
2022-10-01T19:34:28.534Z,11.60
2022-10-01T19:37:04.794Z,11.60
2022-10-01T19:39:38.526Z,11.50
2022-10-01T19:42:19.941Z,11.50
2022-10-01T19:44:54.650Z,11.50
2022-10-01T19:47:34.900Z,11.50
2022-10-01T19:50:33.757Z,11.60
2022-10-01T19:53:03.404Z,11.60
2022-10-01T19:55:38.847Z,11.60
2022-10-01T19:58:18.679Z,11.70
2022-10-01T20:00:52.648Z,11.60
2022-10-01T20:03:26.601Z,11.70
2022-10-01T20:06:00.026Z,11.70
2022-10-01T20:08:36.340Z,11.70
2022-10-01T20:11:21.267Z,11.70
2022-10-01T20:14:07.130Z,11.70
2022-10-01T20:16:41.749Z,11.70
2022-10-01T20:19:26.879Z,11.70
2022-10-01T20:22:05.731Z,11.70
2022-10-01T20:25:26.737Z,11.70
2022-10-01T20:28:20.632Z,11.70
2022-10-01T20:31:25.577Z,11.70
2022-10-01T20:34:04.987Z,11.70
2022-10-01T20:36:38.747Z,11.70
2022-10-01T20:39:17.968Z,11.70
2022-10-01T20:41:49.836Z,11.70
2022-10-01T20:44:33.963Z,11.70
2022-10-01T20:47:12.398Z,11.70
2022-10-01T20:49:54.909Z,11.70
2022-10-01T20:52:38.219Z,11.70
2022-10-01T20:55:26.797Z,11.70
2022-10-01T20:58:00.807Z,11.70
2022-10-01T21:00:30.032Z,11.70
2022-10-01T21:03:19.123Z,11.70
2022-10-01T21:05:59.690Z,11.70
2022-10-01T21:08:37.409Z,11.70
2022-10-01T21:11:14.969Z,11.70
2022-10-01T21:13:53.667Z,11.70
2022-10-01T21:16:43.071Z,11.80
2022-10-01T21:19:15.770Z,11.70
2022-10-01T21:22:05.052Z,11.70
2022-10-01T21:24:57.390Z,11.70
2022-10-01T21:28:04.231Z,11.70
2022-10-01T21:31:00.994Z,11.70
2022-10-01T21:33:55.471Z,11.70
2022-10-01T21:36:42.511Z,11.70
2022-10-01T21:39:40.260Z,11.70
2022-10-01T21:42:24.189Z,11.70
2022-10-01T21:45:24.254Z,11.70
2022-10-01T21:47:58.826Z,11.70
2022-10-01T21:50:38.638Z,11.70
2022-10-01T21:53:38.835Z,11.70
2022-10-01T21:56:35.465Z,11.60
2022-10-01T21:59:37.434Z,11.70
2022-10-01T22:02:26.378Z,11.70
2022-10-01T22:05:06.588Z,11.70
2022-10-01T22:07:49.129Z,11.70
2022-10-01T22:10:37.385Z,11.60
2022-10-01T22:13:34.959Z,11.60
2022-10-01T22:16:09.178Z,11.60
2022-10-01T22:18:52.447Z,11.60
2022-10-01T22:21:46.960Z,11.60
2022-10-01T22:24:25.182Z,11.60
2022-10-01T22:27:16.375Z,11.60
2022-10-01T22:30:10.077Z,11.60
2022-10-01T22:33:07.199Z,11.60
2022-10-01T22:35:59.299Z,11.60
2022-10-01T22:38:46.424Z,11.60
2022-10-01T22:41:49.543Z,11.60
2022-10-01T22:44:24.330Z,11.60
2022-10-01T22:47:02.479Z,11.70
2022-10-01T22:49:36.386Z,11.70
2022-10-01T22:52:28.371Z,11.60
2022-10-01T22:55:17.079Z,11.60
2022-10-01T22:58:00.467Z,11.60
2022-10-01T23:00:46.961Z,11.60
2022-10-01T23:03:39.024Z,11.70
2022-10-01T23:06:23.695Z,11.70
2022-10-01T23:09:04.549Z,11.70
2022-10-01T23:11:59.594Z,11.60
2022-10-01T23:14:45.090Z,11.60
2022-10-01T23:17:43.752Z,11.70
2022-10-01T23:20:29.486Z,11.70
2022-10-01T23:23:12.567Z,11.60
2022-10-01T23:26:13.823Z,11.60
2022-10-01T23:28:50.274Z,11.60
2022-10-01T23:31:33.356Z,11.60
2022-10-01T23:34:15.444Z,11.60
2022-10-01T23:37:11.300Z,11.60
2022-10-01T23:39:49.119Z,11.60
2022-10-01T23:42:56.614Z,11.60
2022-10-01T23:45:45.748Z,11.60
2022-10-01T23:48:40.133Z,11.70
2022-10-01T23:51:17.868Z,11.70
2022-10-01T23:54:12.449Z,11.60
2022-10-01T23:56:55.677Z,11.60
2022-10-01T23:59:36.333Z,11.60
